Time;durP1;ratioP1;P1;durP2;ratioP2;P2;SDS_P1;SDS_P2;PMS_P1;PMS_P2;Temp;Humidity;BMP_temperature;BMP_pressure;BME280_temperature;BME280_humidity;BME280_pressure;Samples;Min_cycle;Max_cycle;Signal;HPM_P1;HPM_P2
2024/04/13 00:00:05;;;;;;;1.85;1.40;;;16.50;80.70;;;;;;5362166;26;20013;-65
2024/04/13 00:02:32;;;;;;;1.88;1.50;;;16.50;80.70;;;;;;5352292;26;20000;-67
2024/04/13 00:04:58;;;;;;;2.65;1.45;;;16.50;80.80;;;;;;5361645;26;20012;-64
2024/04/13 00:07:24;;;;;;;2.33;1.50;;;16.50;80.70;;;;;;5364717;26;20029;-65
2024/04/13 00:09:50;;;;;;;1.75;1.20;;;16.50;80.80;;;;;;5351318;26;20005;-67
2024/04/13 00:12:15;;;;;;;1.40;1.10;;;16.50;80.70;;;;;;5359772;26;20011;-66
2024/04/13 00:14:41;;;;;;;1.92;1.02;;;16.50;80.70;;;;;;5370748;26;20007;-66
2024/04/13 00:17:07;;;;;;;1.73;1.02;;;16.50;80.70;;;;;;5352286;26;20498;-64
2024/04/13 00:19:35;;;;;;;1.17;0.95;;;16.40;80.80;;;;;;5344832;26;20012;-64
2024/04/13 00:22:01;;;;;;;1.00;0.90;;;16.40;80.80;;;;;;5358838;26;20331;-64
2024/04/13 00:24:26;;;;;;;2.25;1.00;;;16.40;80.90;;;;;;5359160;26;20019;-64
2024/04/13 00:26:52;;;;;;;1.67;1.20;;;16.40;80.80;;;;;;5356083;26;20019;-66
2024/04/13 00:29:18;;;;;;;1.73;1.20;;;16.40;80.90;;;;;;5359973;26;20041;-65
2024/04/13 00:31:44;;;;;;;1.35;0.80;;;16.40;81.00;;;;;;5357911;26;20350;-66
2024/04/13 00:34:10;;;;;;;2.03;1.20;;;16.30;81.00;;;;;;5365629;26;19992;-65
2024/04/13 00:36:35;;;;;;;1.20;1.05;;;16.30;81.10;;;;;;5358167;26;20043;-64
2024/04/13 00:39:04;;;;;;;2.63;1.60;;;16.30;81.10;;;;;;5370598;26;19996;-64
2024/04/13 00:41:30;;;;;;;2.17;1.50;;;16.30;81.20;;;;;;5358185;26;20307;-65
2024/04/13 00:43:57;;;;;;;2.40;1.40;;;16.30;81.30;;;;;;5363495;26;20070;-66
2024/04/13 00:46:24;;;;;;;2.28;1.50;;;16.20;81.20;;;;;;5360661;26;19993;-65
2024/04/13 00:48:51;;;;;;;2.38;1.20;;;16.20;81.30;;;;;;5346369;26;20004;-65
2024/04/13 00:51:17;;;;;;;1.23;1.02;;;16.20;80.90;;;;;;5360334;26;20004;-66
2024/04/13 00:53:44;;;;;;;1.42;0.98;;;16.20;81.40;;;;;;5353219;26;20001;-66
2024/04/13 00:56:11;;;;;;;2.70;1.45;;;16.20;81.30;;;;;;5360131;26;20083;-66
2024/04/13 00:58:38;;;;;;;1.35;1.00;;;16.20;81.40;;;;;;5361804;26;19997;-65
2024/04/13 01:01:05;;;;;;;1.55;1.30;;;16.20;81.50;;;;;;5348028;26;20001;-66
2024/04/13 01:03:31;;;;;;;2.00;1.48;;;16.10;81.40;;;;;;5369393;26;20004;-64
2024/04/13 01:05:57;;;;;;;2.25;1.42;;;16.10;81.60;;;;;;5365875;26;20011;-64
2024/04/13 01:08:23;;;;;;;1.48;1.13;;;16.10;81.70;;;;;;5356088;26;19996;-65
2024/04/13 01:10:49;;;;;;;1.40;1.10;;;16.00;81.60;;;;;;5374268;26;20037;-65
2024/04/13 01:13:18;;;;;;;1.50;1.20;;;16.00;81.70;;;;;;5348016;26;20100;-66
2024/04/13 01:15:44;;;;;;;2.00;1.13;;;16.00;81.80;;;;;;5352173;26;20012;-66
2024/04/13 01:18:14;;;;;;;1.50;1.00;;;16.00;81.80;;;;;;5366145;26;19996;-65
2024/04/13 01:20:41;;;;;;;1.98;1.02;;;16.00;81.80;;;;;;5360432;26;20023;-65
2024/04/13 01:23:11;;;;;;;1.75;1.00;;;16.00;81.80;;;;;;5353142;26;20037;-66
2024/04/13 01:25:38;;;;;;;1.05;0.93;;;15.90;81.80;;;;;;5355412;26;20005;-66
2024/04/13 01:28:04;;;;;;;1.45;0.90;;;16.00;81.80;;;;;;5354493;26;20710;-65
2024/04/13 01:30:32;;;;;;;1.23;1.00;;;16.00;81.80;;;;;;5349376;26;20036;-66
2024/04/13 01:32:58;;;;;;;1.38;1.00;;;16.00;81.90;;;;;;5348492;26;20067;-66
2024/04/13 01:35:23;;;;;;;0.88;0.82;;;15.90;81.90;;;;;;5370673;26;19993;-66
2024/04/13 01:37:49;;;;;;;1.42;1.02;;;15.90;81.90;;;;;;5360258;26;20008;-66
2024/04/13 01:40:14;;;;;;;0.85;0.85;;;15.90;81.90;;;;;;5357345;26;20067;-65
2024/04/13 01:42:45;;;;;;;2.03;1.00;;;15.90;82.00;;;;;;5348819;26;20056;-65
2024/04/13 01:45:11;;;;;;;1.30;1.10;;;15.80;82.10;;;;;;5358883;26;20001;-64
2024/04/13 01:47:37;;;;;;;2.08;1.20;;;15.80;82.10;;;;;;5368679;26;21506;-65
2024/04/13 01:50:03;;;;;;;1.00;0.90;;;15.80;82.10;;;;;;5350300;26;20028;-66
2024/04/13 01:52:29;;;;;;;2.55;1.60;;;15.80;82.10;;;;;;5353428;26;20470;-65
2024/04/13 01:54:55;;;;;;;2.63;1.70;;;15.80;82.30;;;;;;5362716;26;20020;-64
2024/04/13 01:57:21;;;;;;;1.88;1.30;;;15.70;82.40;;;;;;5351265;26;20000;-66
2024/04/13 01:59:47;;;;;;;1.30;1.02;;;15.70;82.40;;;;;;5352540;26;19995;-66
2024/04/13 02:02:12;;;;;;;1.77;1.23;;;15.70;82.40;;;;;;5365299;26;20027;-64
2024/04/13 02:04:38;;;;;;;2.08;1.27;;;15.70;82.40;;;;;;5358554;26;20008;-64
2024/04/13 02:07:07;;;;;;;1.60;1.10;;;15.70;82.50;;;;;;5356209;26;20017;-66
2024/04/13 02:09:33;;;;;;;2.10;1.10;;;15.70;82.60;;;;;;5351272;26;20487;-65
2024/04/13 02:12:02;;;;;;;1.35;1.00;;;15.60;82.60;;;;;;5355386;26;20008;-65
2024/04/13 02:14:27;;;;;;;1.20;1.00;;;15.60;82.60;;;;;;5352670;26;20005;-65
2024/04/13 02:16:53;;;;;;;2.03;1.20;;;15.60;82.60;;;;;;5357275;26;20000;-64
2024/04/13 02:19:19;;;;;;;2.00;1.00;;;15.60;82.70;;;;;;5349301;26;20008;-63
2024/04/13 02:21:44;;;;;;;2.28;1.38;;;15.50;82.70;;;;;;5357894;26;20018;-64
2024/04/13 02:24:10;;;;;;;2.40;1.20;;;15.50;82.90;;;;;;5367500;26;19996;-65
2024/04/13 02:26:36;;;;;;;2.90;1.30;;;15.50;82.90;;;;;;5362674;26;20012;-65
2024/04/13 02:29:01;;;;;;;2.38;1.20;;;15.50;82.80;;;;;;5369342;26;20015;-65
2024/04/13 02:31:27;;;;;;;1.67;1.10;;;15.40;82.80;;;;;;5371429;26;20000;-66
2024/04/13 02:33:53;;;;;;;1.17;1.00;;;15.40;82.90;;;;;;5353813;26;20019;-63
2024/04/13 02:36:19;;;;;;;1.95;1.02;;;15.40;82.90;;;;;;5353433;26;20048;-63
2024/04/13 02:38:46;;;;;;;1.35;1.25;;;15.40;82.90;;;;;;5350846;26;20001;-65
2024/04/13 02:41:12;;;;;;;1.80;1.20;;;15.40;83.00;;;;;;5351282;26;20001;-65
2024/04/13 02:43:38;;;;;;;1.52;1.20;;;15.40;83.10;;;;;;5355864;26;20008;-65
2024/04/13 02:46:09;;;;;;;1.50;1.30;;;15.40;83.20;;;;;;5364499;26;20019;-66
2024/04/13 02:48:47;;;;;;;1.35;1.10;;;15.30;83.20;;;;;;5366601;26;20000;-66
2024/04/13 02:51:14;;;;;;;2.08;1.35;;;15.30;83.30;;;;;;5371555;26;20011;-66
2024/04/13 02:53:39;;;;;;;1.10;1.00;;;15.30;83.30;;;;;;5355917;26;20023;-66
2024/04/13 02:56:06;;;;;;;1.83;1.30;;;15.30;83.30;;;;;;5366675;26;20000;-66
2024/04/13 02:58:32;;;;;;;1.88;1.15;;;15.30;83.30;;;;;;5370905;26;20005;-65
2024/04/13 03:00:59;;;;;;;1.83;0.90;;;15.30;83.30;;;;;;5354350;26;20021;-65
2024/04/13 03:03:25;;;;;;;0.98;0.90;;;15.30;83.30;;;;;;5350139;26;20525;-67
2024/04/13 03:06:05;;;;;;;1.08;0.93;;;15.20;83.30;;;;;;5366554;26;20000;-66
2024/04/13 03:08:33;;;;;;;1.00;0.90;;;15.30;83.30;;;;;;5362127;26;20075;-65
2024/04/13 03:11:01;;;;;;;1.33;1.23;;;15.20;83.30;;;;;;5352997;26;20045;-66
2024/04/13 03:13:27;;;;;;;1.70;1.10;;;15.20;83.50;;;;;;5354649;26;20029;-66
2024/04/13 03:16:03;;;;;;;1.40;1.10;;;15.20;83.60;;;;;;5369956;26;20009;-65
2024/04/13 03:18:30;;;;;;;2.95;1.55;;;15.20;83.70;;;;;;5352163;26;20425;-65
2024/04/13 03:20:57;;;;;;;2.00;1.23;;;15.10;83.80;;;;;;5365602;26;20081;-65
2024/04/13 03:23:23;;;;;;;1.73;1.50;;;15.10;83.90;;;;;;5367665;26;19996;-65
2024/04/13 03:25:48;;;;;;;1.75;1.35;;;15.10;83.90;;;;;;5359571;26;20035;-66
2024/04/13 03:28:14;;;;;;;1.23;1.10;;;15.10;83.90;;;;;;5356996;26;20019;-65
2024/04/13 03:30:39;;;;;;;1.55;1.10;;;15.10;83.90;;;;;;5367554;26;20019;-65
2024/04/13 03:33:05;;;;;;;1.40;1.15;;;15.00;83.80;;;;;;5360028;26;20016;-66
2024/04/13 03:35:37;;;;;;;2.05;1.15;;;15.00;83.80;;;;;;5359365;26;20011;-66
2024/04/13 03:38:04;;;;;;;1.50;1.40;;;15.00;84.00;;;;;;5365633;26;20000;-66
2024/04/13 03:40:30;;;;;;;1.27;1.10;;;15.00;84.00;;;;;;5347658;26;19996;-66
2024/04/13 03:42:55;;;;;;;2.20;1.40;;;14.90;84.10;;;;;;5365614;26;20037;-66
2024/04/13 03:45:21;;;;;;;1.20;1.08;;;14.90;84.00;;;;;;5368873;26;20357;-63
2024/04/13 03:47:46;;;;;;;1.00;1.00;;;14.90;84.00;;;;;;5366650;26;20458;-67
2024/04/13 03:50:13;;;;;;;1.80;1.00;;;14.90;84.10;;;;;;5360330;26;19996;-66
2024/04/13 03:52:41;;;;;;;1.85;1.00;;;14.90;84.10;;;;;;5364976;26;20538;-65
2024/04/13 03:55:06;;;;;;;3.78;1.40;;;14.90;84.20;;;;;;5362566;26;20506;-64
2024/04/13 03:57:32;;;;;;;1.83;1.00;;;14.90;84.30;;;;;;5354428;26;20007;-65
2024/04/13 03:59:58;;;;;;;1.60;1.20;;;14.80;84.30;;;;;;5357723;26;20036;-66
2024/04/13 04:02:24;;;;;;;2.00;1.40;;;14.80;84.40;;;;;;5374357;26;20000;-66
2024/04/13 04:04:49;;;;;;;1.83;1.20;;;14.80;84.40;;;;;;5369966;26;20004;-66
2024/04/13 04:07:15;;;;;;;1.90;1.00;;;14.80;84.40;;;;;;5369494;26;20045;-65
2024/04/13 04:09:41;;;;;;;1.58;1.08;;;14.80;84.40;;;;;;5370990;26;21957;-65
2024/04/13 04:12:06;;;;;;;1.33;1.15;;;14.80;84.40;;;;;;5367587;26;20408;-66
2024/04/13 04:14:32;;;;;;;2.17;1.30;;;14.80;85.10;;;;;;5362844;26;20455;-65
2024/04/13 04:16:58;;;;;;;1.30;1.20;;;14.80;84.60;;;;;;5360738;26;20004;-65
2024/04/13 04:19:23;;;;;;;2.13;1.40;;;14.70;84.60;;;;;;5357119;26;20008;-64
2024/04/13 04:21:49;;;;;;;1.80;1.40;;;14.70;84.70;;;;;;5368992;26;19992;-65
2024/04/13 04:24:15;;;;;;;3.13;1.40;;;14.70;84.80;;;;;;5372674;26;20051;-65
2024/04/13 04:26:40;;;;;;;1.70;1.60;;;14.70;84.80;;;;;;5359857;26;20008;-65
2024/04/13 04:29:06;;;;;;;1.55;1.30;;;14.60;84.80;;;;;;5369805;26;20001;-65
2024/04/13 04:31:32;;;;;;;1.92;1.30;;;14.70;84.90;;;;;;5365590;26;20012;-65
2024/04/13 04:33:57;;;;;;;1.70;1.20;;;14.60;84.80;;;;;;5363253;26;20004;-66
2024/04/13 04:36:23;;;;;;;1.88;1.48;;;14.60;84.80;;;;;;5358925;26;20000;-65
2024/04/13 04:38:51;;;;;;;1.83;1.35;;;14.60;84.80;;;;;;5352041;26;20012;-66
2024/04/13 04:41:17;;;;;;;1.48;1.00;;;14.70;84.90;;;;;;5372239;26;20097;-66
2024/04/13 04:43:42;;;;;;;2.22;1.50;;;14.60;84.70;;;;;;5376703;26;20022;-66
2024/04/13 04:46:09;;;;;;;3.03;1.58;;;14.60;84.80;;;;;;5370665;26;20000;-66
2024/04/13 04:48:35;;;;;;;2.38;1.27;;;14.60;85.50;;;;;;5360385;26;20014;-66
2024/04/13 04:51:02;;;;;;;1.20;1.10;;;14.70;84.90;;;;;;5364899;26;20079;-66
2024/04/13 04:53:28;;;;;;;1.65;1.48;;;14.60;84.80;;;;;;5369813;26;20004;-66
2024/04/13 04:55:58;;;;;;;2.28;1.63;;;14.60;84.90;;;;;;5372068;26;20019;-66
2024/04/13 04:58:24;;;;;;;2.38;1.55;;;14.60;84.90;;;;;;5372051;26;20036;-67
2024/04/13 05:00:50;;;;;;;2.30;1.75;;;14.60;84.90;;;;;;5355660;26;20626;-68
2024/04/13 05:03:16;;;;;;;1.77;1.50;;;14.60;85.00;;;;;;5367465;26;20070;-65
2024/04/13 05:05:45;;;;;;;2.63;1.35;;;14.60;85.10;;;;;;5371170;26;20707;-66
2024/04/13 05:08:10;;;;;;;2.15;1.60;;;14.60;85.00;;;;;;5365517;26;20438;-66
2024/04/13 05:10:37;;;;;;;3.95;2.53;;;14.60;85.10;;;;;;5371952;26;20031;-65
2024/04/13 05:13:03;;;;;;;3.35;2.10;;;14.60;85.10;;;;;;5367221;26;20070;-64
2024/04/13 05:15:29;;;;;;;2.33;1.60;;;14.60;85.30;;;;;;5349157;26;19997;-66
2024/04/13 05:17:55;;;;;;;2.40;1.85;;;14.60;85.30;;;;;;5357650;26;20034;-66
2024/04/13 05:20:21;;;;;;;3.42;1.88;;;14.60;85.20;;;;;;5360440;26;20699;-66
2024/04/13 05:22:47;;;;;;;3.92;2.30;;;14.60;85.40;;;;;;5361360;26;19996;-65
2024/04/13 05:25:13;;;;;;;4.20;2.20;;;14.50;85.40;;;;;;5364370;26;20012;-66
2024/04/13 05:27:39;;;;;;;4.35;2.88;;;14.60;85.50;;;;;;5353992;26;20446;-66
2024/04/13 05:30:06;;;;;;;4.38;2.38;;;14.50;86.10;;;;;;5356857;26;19997;-66
2024/04/13 05:32:33;;;;;;;2.92;2.00;;;14.50;86.20;;;;;;5367318;26;20004;-66
2024/04/13 05:34:59;;;;;;;4.95;2.50;;;14.50;86.20;;;;;;5368955;26;20005;-66
2024/04/13 05:37:25;;;;;;;4.75;3.10;;;14.50;86.10;;;;;;5364935;26;20312;-66
2024/04/13 05:39:51;;;;;;;3.90;2.60;;;14.50;86.60;;;;;;5367237;26;19997;-67
2024/04/13 05:42:16;;;;;;;4.53;2.78;;;14.50;86.60;;;;;;5366361;26;20005;-66
2024/04/13 05:44:42;;;;;;;4.32;2.80;;;14.60;86.70;;;;;;5353532;26;20110;-66
2024/04/13 05:47:08;;;;;;;3.55;2.55;;;14.60;86.80;;;;;;5348631;26;20458;-65
2024/04/13 05:49:33;;;;;;;4.15;2.80;;;14.60;86.80;;;;;;5362594;26;20011;-66
2024/04/13 05:51:59;;;;;;;3.83;2.53;;;14.60;86.80;;;;;;5369857;26;20081;-65
2024/04/13 05:54:25;;;;;;;4.13;2.50;;;14.70;86.70;;;;;;5370782;26;20447;-67
2024/04/13 05:56:53;;;;;;;3.65;2.25;;;14.70;86.70;;;;;;5352041;26;19993;-67
2024/04/13 05:59:19;;;;;;;3.47;2.25;;;14.80;86.70;;;;;;5345986;26;20410;-66
2024/04/13 06:01:44;;;;;;;3.65;2.50;;;14.80;86.50;;;;;;5371630;26;19997;-65
2024/04/13 06:04:10;;;;;;;4.15;2.58;;;14.80;86.50;;;;;;5351353;26;20001;-66
2024/04/13 06:06:35;;;;;;;4.80;2.50;;;14.90;86.60;;;;;;5360153;26;20000;-67
2024/04/13 06:09:01;;;;;;;2.70;1.88;;;15.00;86.50;;;;;;5360343;26;20072;-67
2024/04/13 06:11:27;;;;;;;5.00;2.67;;;15.10;86.20;;;;;;5358399;26;20021;-66
2024/04/13 06:13:53;;;;;;;4.43;3.08;;;15.20;86.10;;;;;;5347616;26;20001;-65
2024/04/13 06:16:18;;;;;;;3.65;2.50;;;15.30;86.00;;;;;;5346943;26;20012;-67
2024/04/13 06:18:44;;;;;;;2.55;2.13;;;15.40;85.80;;;;;;5356646;26;19997;-68
2024/04/13 06:21:10;;;;;;;2.83;2.05;;;15.60;85.40;;;;;;5354676;26;20049;-68
2024/04/13 06:23:35;;;;;;;5.28;2.95;;;15.80;84.90;;;;;;5369066;26;20011;-68
2024/04/13 06:26:01;;;;;;;5.05;2.92;;;16.00;84.50;;;;;;5363737;26;20364;-66
2024/04/13 06:28:27;;;;;;;4.65;2.47;;;16.10;84.30;;;;;;5365627;26;19997;-66
2024/04/13 06:30:52;;;;;;;4.93;3.45;;;16.20;83.70;;;;;;5345859;26;20000;-66
2024/04/13 06:33:18;;;;;;;4.32;3.00;;;16.10;83.60;;;;;;5354692;26;20092;-67
2024/04/13 06:35:50;;;;;;;6.60;3.50;;;16.10;83.90;;;;;;5356678;26;20486;-65
2024/04/13 06:38:23;;;;;;;4.57;2.85;;;16.10;84.30;;;;;;5357471;26;20004;-65
2024/04/13 06:40:52;;;;;;;6.00;3.50;;;16.10;84.20;;;;;;5366002;26;19999;-65
2024/04/13 06:43:18;;;;;;;4.25;2.92;;;16.10;84.30;;;;;;5348650;26;20005;-66
2024/04/13 06:45:43;;;;;;;4.05;3.00;;;16.20;84.20;;;;;;5367323;26;20093;-66
2024/04/13 06:48:09;;;;;;;5.55;3.80;;;16.80;83.90;;;;;;5362829;26;19996;-67
2024/04/13 06:50:34;;;;;;;5.88;3.53;;;17.10;82.70;;;;;;5345030;26;20004;-67
2024/04/13 06:53:00;;;;;;;6.93;3.97;;;17.60;81.80;;;;;;5355425;26;20000;-66
2024/04/13 06:55:26;;;;;;;6.82;4.22;;;17.60;81.00;;;;;;5357652;26;20036;-67
2024/04/13 06:57:52;;;;;;;6.15;3.67;;;17.80;80.50;;;;;;5352104;26;19996;-67
2024/04/13 07:00:17;;;;;;;4.22;2.70;;;18.00;80.10;;;;;;5363099;26;20059;-66
2024/04/13 07:02:45;;;;;;;4.35;2.78;;;18.20;79.50;;;;;;5350366;26;20679;-66
2024/04/13 07:05:11;;;;;;;3.58;2.50;;;18.40;79.20;;;;;;5361731;26;20015;-65
2024/04/13 07:07:36;;;;;;;5.35;3.35;;;18.20;79.30;;;;;;5366800;26;19996;-66
2024/04/13 07:10:03;;;;;;;5.63;4.10;;;18.10;79.60;;;;;;5365814;26;20079;-67
2024/04/13 07:12:29;;;;;;;6.32;4.40;;;18.20;79.70;;;;;;5364702;26;20416;-67
2024/04/13 07:14:54;;;;;;;6.40;4.10;;;18.20;79.50;;;;;;5363798;26;20009;-67
2024/04/13 07:17:20;;;;;;;5.00;3.70;;;18.40;79.50;;;;;;5365926;26;20008;-66
2024/04/13 07:19:45;;;;;;;6.68;4.20;;;18.50;79.80;;;;;;5374555;26;20358;-68
2024/04/13 07:22:11;;;;;;;7.15;3.90;;;18.50;78.60;;;;;;5370294;26;20377;-64
2024/04/13 07:24:37;;;;;;;6.32;3.75;;;18.20;78.80;;;;;;5372538;26;20413;-65
2024/04/13 07:27:03;;;;;;;4.45;2.95;;;18.10;79.40;;;;;;5365286;26;20000;-65
2024/04/13 07:29:28;;;;;;;4.65;2.92;;;18.00;79.90;;;;;;5380844;26;20015;-65
2024/04/13 07:31:54;;;;;;;5.32;3.22;;;17.80;80.40;;;;;;5363608;26;20100;-66
2024/04/13 07:34:19;;;;;;;6.35;3.70;;;17.70;80.80;;;;;;5356225;26;20367;-66
2024/04/13 07:36:46;;;;;;;5.38;3.65;;;17.70;81.00;;;;;;5347473;26;20015;-65
2024/04/13 07:39:12;;;;;;;6.43;3.10;;;17.90;81.00;;;;;;5365234;26;20538;-66
2024/04/13 07:41:38;;;;;;;3.60;2.70;;;18.40;80.60;;;;;;5365613;26;20004;-67
2024/04/13 07:44:04;;;;;;;4.35;2.50;;;19.00;78.80;;;;;;5365844;26;20447;-65
2024/04/13 07:46:29;;;;;;;3.42;2.70;;;19.60;77.60;;;;;;5365017;26;20835;-66
2024/04/13 07:48:55;;;;;;;4.57;3.10;;;20.10;76.30;;;;;;5362765;26;20014;-65
2024/04/13 07:51:21;;;;;;;5.50;3.53;;;20.30;75.30;;;;;;5356470;26;20024;-64
2024/04/13 07:53:46;;;;;;;4.65;3.50;;;20.00;75.30;;;;;;5365168;26;19996;-66
2024/04/13 07:56:12;;;;;;;6.90;3.05;;;19.90;75.40;;;;;;5368397;26;19997;-66
2024/04/13 07:58:37;;;;;;;3.70;2.60;;;20.20;75.20;;;;;;5360225;26;20000;-65
2024/04/13 08:01:03;;;;;;;3.78;2.30;;;20.70;74.50;;;;;;5349344;26;20011;-66
2024/04/13 08:03:29;;;;;;;3.25;2.30;;;21.10;73.80;;;;;;5359823;26;19996;-66
2024/04/13 08:05:55;;;;;;;4.28;2.30;;;21.60;72.70;;;;;;5362056;26;20405;-66
2024/04/13 08:08:21;;;;;;;2.65;2.10;;;22.10;71.60;;;;;;5361425;26;20074;-66
2024/04/13 08:10:47;;;;;;;3.45;2.33;;;22.30;70.90;;;;;;5357531;26;20108;-66
2024/04/13 08:13:14;;;;;;;6.95;3.35;;;22.60;70.20;;;;;;5362122;26;19997;-65
2024/04/13 08:15:39;;;;;;;5.32;3.33;;;22.50;69.20;;;;;;5358240;26;20001;-66
2024/04/13 08:18:05;;;;;;;3.83;2.75;;;22.20;69.40;;;;;;5369473;26;20110;-67
2024/04/13 08:20:31;;;;;;;3.35;2.45;;;22.10;70.10;;;;;;5360286;26;20048;-65
2024/04/13 08:22:56;;;;;;;3.88;2.53;;;21.90;70.40;;;;;;5356458;26;20011;-66
2024/04/13 08:25:23;;;;;;;2.30;1.80;;;21.60;71.20;;;;;;5352925;26;20619;-66
2024/04/13 08:27:49;;;;;;;4.93;3.00;;;21.70;71.70;;;;;;5358360;26;20004;-66
2024/04/13 08:30:14;;;;;;;3.15;2.10;;;21.60;71.30;;;;;;5365921;26;20004;-65
2024/04/13 08:32:40;;;;;;;3.47;2.25;;;21.70;71.80;;;;;;5368057;26;20014;-66
2024/04/13 08:35:06;;;;;;;4.30;3.00;;;21.80;71.50;;;;;;5375912;26;20012;-68
2024/04/13 08:37:32;;;;;;;4.03;3.17;;;21.70;71.30;;;;;;5364715;26;20101;-65
2024/04/13 08:39:58;;;;;;;4.90;2.88;;;21.60;71.70;;;;;;5372202;26;20004;-67
2024/04/13 08:42:37;;;;;;;6.47;3.90;;;21.80;71.60;;;;;;5364771;26;19997;-66
2024/04/13 08:45:08;;;;;;;5.18;3.28;;;22.00;70.40;;;;;;5360769;26;20012;-65
2024/04/13 08:47:35;;;;;;;5.88;3.80;;;22.00;70.60;;;;;;5368625;26;20016;-66
2024/04/13 08:50:02;;;;;;;5.30;3.10;;;21.60;70.80;;;;;;5360543;26;20073;-65
2024/04/13 08:52:30;;;;;;;4.70;2.55;;;21.60;71.40;;;;;;5358293;26;20004;-66
2024/04/13 08:54:56;;;;;;;5.15;3.00;;;21.60;71.60;;;;;;5368588;26;20123;-66
2024/04/13 08:57:26;;;;;;;4.22;2.90;;;21.60;71.90;;;;;;5357092;26;20577;-66
2024/04/13 08:59:52;;;;;;;5.00;3.22;;;21.40;72.30;;;;;;5372549;26;20016;-66
2024/04/13 09:02:31;;;;;;;5.13;3.10;;;21.20;72.60;;;;;;5354058;26;20024;-66
2024/04/13 09:04:58;;;;;;;5.38;3.20;;;21.10;73.30;;;;;;5356774;26;20015;-67
2024/04/13 09:07:24;;;;;;;4.13;2.95;;;21.00;73.60;;;;;;5341942;26;20011;-66
2024/04/13 09:09:53;;;;;;;5.28;3.10;;;21.00;73.60;;;;;;5351444;26;19997;-66
2024/04/13 09:12:19;;;;;;;4.20;2.90;;;20.80;73.60;;;;;;5363329;26;20000;-66
2024/04/13 09:14:44;;;;;;;5.95;3.80;;;20.80;74.00;;;;;;5369777;26;20004;-66
2024/04/13 09:17:10;;;;;;;5.68;3.47;;;20.60;73.80;;;;;;5356799;26;20071;-65
2024/04/13 09:19:36;;;;;;;6.72;3.65;;;20.50;74.10;;;;;;5359329;26;20000;-65
2024/04/13 09:22:03;;;;;;;5.80;3.72;;;20.60;74.30;;;;;;5362083;26;19996;-66
2024/04/13 09:24:41;;;;;;;6.60;3.92;;;20.50;74.00;;;;;;5364339;26;20036;-66
2024/04/13 09:27:14;;;;;;;4.78;3.17;;;20.50;74.30;;;;;;5351651;26;20100;-67
2024/04/13 09:29:40;;;;;;;3.75;2.40;;;20.50;74.40;;;;;;5367452;26;20004;-66
2024/04/13 09:32:07;;;;;;;3.65;2.63;;;20.70;74.50;;;;;;5359183;26;20132;-66
2024/04/13 09:34:34;;;;;;;4.20;2.85;;;20.70;74.20;;;;;;5361591;26;20079;-67
2024/04/13 09:37:07;;;;;;;3.33;2.50;;;20.80;74.30;;;;;;5357784;26;20071;-67
2024/04/13 09:39:33;;;;;;;4.78;2.45;;;20.80;74.20;;;;;;5371527;26;20005;-67
2024/04/13 09:42:05;;;;;;;3.25;2.30;;;21.00;74.30;;;;;;5381251;26;20004;-67
2024/04/13 09:44:31;;;;;;;4.40;2.25;;;21.00;74.10;;;;;;5363886;26;20007;-66
2024/04/13 09:46:57;;;;;;;3.78;2.40;;;21.10;74.20;;;;;;5363392;26;19992;-66
2024/04/13 09:49:23;;;;;;;3.63;2.22;;;21.20;74.70;;;;;;5362324;26;20089;-66
2024/04/13 09:51:50;;;;;;;5.30;2.30;;;21.30;74.00;;;;;;5359709;26;20001;-66
2024/04/13 09:54:16;;;;;;;5.07;3.28;;;21.40;74.00;;;;;;5367310;26;20073;-67
2024/04/13 09:56:46;;;;;;;4.47;2.72;;;21.40;73.50;;;;;;5358687;26;19996;-66
2024/04/13 09:59:13;;;;;;;4.30;3.13;;;21.40;73.80;;;;;;5367614;26;19996;-66
2024/04/13 10:01:39;;;;;;;4.55;2.67;;;21.50;73.40;;;;;;5364017;26;20016;-66
2024/04/13 10:04:05;;;;;;;6.60;4.25;;;21.50;73.50;;;;;;5366613;26;20025;-67
2024/04/13 10:06:32;;;;;;;6.78;4.38;;;21.50;72.70;;;;;;5362670;26;20012;-67
2024/04/13 10:09:00;;;;;;;6.05;3.40;;;21.50;72.90;;;;;;5362758;26;20012;-66
2024/04/13 10:11:27;;;;;;;8.75;4.75;;;21.50;73.10;;;;;;5356587;26;20668;-66
2024/04/13 10:13:53;;;;;;;8.43;3.85;;;21.50;73.00;;;;;;5364081;26;20009;-66
2024/04/13 10:16:19;;;;;;;6.15;3.67;;;21.50;73.20;;;;;;5369023;26;20015;-66
2024/04/13 10:18:45;;;;;;;5.95;3.80;;;21.60;73.20;;;;;;5370041;26;20130;-66
2024/04/13 10:21:13;;;;;;;6.45;3.95;;;21.70;73.20;;;;;;5367870;26;20073;-66
2024/04/13 10:23:45;;;;;;;8.13;3.88;;;21.80;73.00;;;;;;5353010;26;20469;-66
2024/04/13 10:26:10;;;;;;;4.47;2.80;;;21.80;72.90;;;;;;5362167;26;20000;-67
2024/04/13 10:28:37;;;;;;;6.75;4.70;;;21.90;73.00;;;;;;5354103;26;20347;-66
2024/04/13 10:31:03;;;;;;;7.30;4.55;;;22.00;72.40;;;;;;5360071;26;20444;-66
2024/04/13 10:33:30;;;;;;;7.38;4.43;;;21.90;72.00;;;;;;5375446;26;20001;-66
2024/04/13 10:36:01;;;;;;;8.48;4.70;;;22.00;72.30;;;;;;5361811;26;19997;-66
2024/04/13 10:38:28;;;;;;;;;;;22.10;72.00;;;;;;5354347;26;20074;-66
2024/04/13 10:40:55;;;;;;;5.10;2.95;;;22.10;71.90;;;;;;5362057;26;19933;-67
2024/04/13 10:43:22;;;;;;;5.72;2.70;;;22.20;72.10;;;;;;5351797;26;20001;-65
2024/04/13 10:45:56;;;;;;;5.20;3.50;;;22.40;71.80;;;;;;5357356;26;20000;-66
2024/04/13 10:48:22;;;;;;;4.93;3.17;;;22.50;72.10;;;;;;5350096;26;20013;-66
2024/04/13 10:50:49;;;;;;;4.07;2.60;;;22.50;71.00;;;;;;5361258;26;20004;-66
2024/04/13 10:53:16;;;;;;;3.55;2.20;;;22.70;71.30;;;;;;5354516;26;20036;-66
2024/04/13 10:55:42;;;;;;;5.95;3.70;;;22.80;71.10;;;;;;5346666;26;20078;-65
2024/04/13 10:58:08;;;;;;;4.38;2.40;;;22.80;70.00;;;;;;5354602;26;20014;-64
2024/04/13 11:00:34;;;;;;;2.33;1.85;;;22.80;70.40;;;;;;5372959;26;20077;-66
2024/04/13 11:03:00;;;;;;;4.93;2.65;;;23.00;70.50;;;;;;5345559;26;20468;-64
2024/04/13 11:05:27;;;;;;;4.18;2.95;;;23.00;69.90;;;;;;5347913;26;20436;-64
2024/04/13 11:07:52;;;;;;;5.82;3.28;;;23.00;69.60;;;;;;5364129;26;20479;-66
2024/04/13 11:10:19;;;;;;;3.88;2.40;;;23.00;68.60;;;;;;5367379;26;20000;-66
2024/04/13 11:12:45;;;;;;;4.90;2.80;;;23.00;68.50;;;;;;5367829;26;20007;-66
2024/04/13 11:15:11;;;;;;;3.38;2.17;;;23.10;68.10;;;;;;5367293;26;20059;-67
2024/04/13 11:17:36;;;;;;;3.88;2.10;;;23.30;68.20;;;;;;5368293;26;20028;-66
2024/04/13 11:20:02;;;;;;;4.15;2.17;;;23.40;68.10;;;;;;5369723;26;20012;-64
2024/04/13 11:22:28;;;;;;;2.30;1.58;;;23.50;67.90;;;;;;5357180;26;20028;-65
2024/04/13 11:24:55;;;;;;;4.18;2.03;;;23.60;67.90;;;;;;5362963;26;20079;-64
2024/04/13 11:27:22;;;;;;;5.63;2.38;;;23.60;67.10;;;;;;5348705;26;20009;-66
2024/04/13 11:29:49;;;;;;;4.28;2.30;;;23.60;66.00;;;;;;5365545;26;19996;-65
2024/04/13 11:32:16;;;;;;;2.78;1.58;;;23.60;65.60;;;;;;5357716;26;20001;-65
2024/04/13 11:34:42;;;;;;;2.13;1.40;;;23.70;66.10;;;;;;5353723;26;20415;-65
2024/04/13 11:37:10;;;;;;;4.38;2.33;;;23.80;65.90;;;;;;5352455;26;20005;-65
2024/04/13 11:39:42;;;;;;;5.32;2.53;;;23.80;64.60;;;;;;5358346;26;20078;-65
2024/04/13 11:42:10;;;;;;;3.45;2.10;;;23.80;63.30;;;;;;5367484;26;20011;-65
2024/04/13 11:44:39;;;;;;;5.13;2.60;;;23.70;63.80;;;;;;5358350;26;20444;-65
2024/04/13 11:47:06;;;;;;;3.13;1.80;;;23.60;62.70;;;;;;5368898;26;20070;-65
2024/04/13 11:49:32;;;;;;;2.25;1.52;;;23.70;63.60;;;;;;5371753;26;19992;-64
2024/04/13 11:51:58;;;;;;;2.95;2.00;;;23.80;63.70;;;;;;5360330;26;20011;-64
2024/04/13 11:54:28;;;;;;;4.60;1.80;;;23.90;63.60;;;;;;5360685;26;20015;-63
2024/04/13 11:56:54;;;;;;;4.05;1.80;;;24.00;63.30;;;;;;5364987;26;20000;-63
2024/04/13 11:59:21;;;;;;;3.97;2.00;;;24.00;63.30;;;;;;5345401;26;19997;-64
2024/04/13 12:01:47;;;;;;;3.33;2.00;;;24.10;62.90;;;;;;5349203;26;20494;-65
2024/04/13 12:04:14;;;;;;;2.80;1.83;;;24.00;62.40;;;;;;5359637;26;20078;-65
2024/04/13 12:06:40;;;;;;;2.47;1.85;;;24.00;62.40;;;;;;5360085;26;20020;-65
2024/04/13 12:09:06;;;;;;;2.15;1.50;;;24.00;62.20;;;;;;5356444;26;20008;-65
2024/04/13 12:11:31;;;;;;;3.45;1.90;;;24.10;62.50;;;;;;5364860;26;20016;-65
2024/04/13 12:13:58;;;;;;;3.83;1.80;;;24.20;62.30;;;;;;5371911;26;20016;-65
2024/04/13 12:16:24;;;;;;;4.18;2.13;;;24.30;62.40;;;;;;5365717;26;20000;-65
2024/04/13 12:18:51;;;;;;;2.42;1.70;;;24.40;61.20;;;;;;5375308;26;20451;-65
2024/04/13 12:21:19;;;;;;;2.10;1.50;;;24.50;61.20;;;;;;5372938;26;20046;-65
2024/04/13 12:23:45;;;;;;;1.98;1.17;;;24.60;61.30;;;;;;5373172;26;20036;-66
2024/04/13 12:26:11;;;;;;;2.22;1.50;;;24.80;61.40;;;;;;5366909;26;20000;-66
2024/04/13 12:28:37;;;;;;;3.22;1.65;;;24.90;61.00;;;;;;5357223;26;20454;-66
2024/04/13 12:31:03;;;;;;;2.78;1.60;;;25.00;60.10;;;;;;5364932;26;20007;-65
2024/04/13 12:33:29;;;;;;;3.30;1.77;;;25.00;59.50;;;;;;5342566;26;20702;-65
2024/04/13 12:35:55;;;;;;;3.17;1.60;;;25.00;58.40;;;;;;5341017;26;20011;-65
2024/04/13 12:38:22;;;;;;;2.97;1.80;;;25.10;58.70;;;;;;5362012;26;19996;-65
2024/04/13 12:40:48;;;;;;;3.75;1.63;;;25.20;59.10;;;;;;5362693;26;20071;-65
2024/04/13 12:43:13;;;;;;;3.28;1.80;;;25.20;59.00;;;;;;5372111;26;20004;-66